GLET21 YPLM-YPLM

Flight info

Callsign GLET21
Flight time N/A
Altitude 5500
Route MERME
Aircraft EC45/L-SDFGRY/C

Departure

Time 2026-04-24 09:09
Airport Learmonth Airport (YPLM)

Arrival

Time N/A
Airport Learmonth Airport (YPLM)
Time Latitude Longitude Altitude Speed Heading
2026-04-24 08:56 -22.24609 114.08464 34 ft 0 kts 182°
2026-04-24 09:04 -22.24628 114.08472 38 ft 8 kts 108°
2026-04-24 09:04 -22.24636 114.08508 33 ft 0 kts 101°
2026-04-24 09:05 -22.24636 114.08545 36 ft 8 kts 57°
2026-04-24 09:05 -22.24622 114.08594 39 ft 5 kts 63°
2026-04-24 09:06 -22.24615 114.08624 38 ft 2 kts 156°
2026-04-24 09:06 -22.24632 114.08631 32 ft 2 kts 185°
2026-04-24 09:06 -22.24635 114.08630 32 ft 0 kts 182°
2026-04-24 09:07 -22.25120 114.08518 211 ft 76 kts 207°
2026-04-24 09:08 -22.24787 114.08313 225 ft 111 kts 36°
2026-04-24 09:08 -22.24031 114.08770 249 ft 135 kts
2026-04-24 09:08 -22.23028 114.08908 214 ft 152 kts
2026-04-24 09:08 -22.21987 114.09099 346 ft 150 kts
2026-04-24 09:09 -22.21001 114.09395 521 ft 144 kts 18°
2026-04-24 09:09 -22.20079 114.09840 606 ft 148 kts 23°
2026-04-24 09:09 -22.19097 114.10095 839 ft 138 kts
2026-04-24 09:09 -22.18163 114.10294 1141 ft 125 kts
2026-04-24 09:10 -22.17478 114.10477 1691 ft 100 kts 24°
2026-04-24 09:10 -22.16806 114.10825 1877 ft 115 kts 32°
2026-04-24 09:10 -22.16156 114.11278 2171 ft 111 kts 38°
2026-04-24 09:10 -22.15982 114.11423 2401 ft 86 kts 46°
2026-04-24 09:11 -22.15566 114.11845 2773 ft 82 kts 57°
2026-04-24 09:11 -22.15311 114.12363 3019 ft 87 kts 77°
2026-04-24 09:11 -22.15194 114.12955 3277 ft 99 kts 71°
2026-04-24 09:11 -22.14592 114.13538 3118 ft 139 kts 32°
2026-04-24 09:12 -22.13736 114.14139 3034 ft 151 kts 34°
2026-04-24 09:12 -22.12774 114.14746 2889 ft 160 kts 25°
2026-04-24 09:12 -22.11800 114.15315 2848 ft 161 kts 36°
2026-04-24 09:12 -22.10964 114.16080 2825 ft 153 kts 44°
2026-04-24 09:13 -22.10303 114.16951 2837 ft 151 kts 57°
2026-04-24 09:13 -22.09671 114.17886 2760 ft 156 kts 38°
2026-04-24 09:13 -22.08665 114.18240 2854 ft 152 kts
2026-04-24 09:13 -22.07601 114.18381 2844 ft 156 kts
2026-04-24 09:14 -22.06507 114.18520 2842 ft 157 kts
2026-04-24 09:14 -22.05775 114.18617 2854 ft 157 kts
2026-04-24 09:14 -22.04338 114.18810 2877 ft 158 kts
2026-04-24 09:14 -22.03242 114.18952 2889 ft 159 kts
2026-04-24 09:15 -22.02151 114.19108 2940 ft 155 kts
2026-04-24 09:15 -22.01062 114.19256 2930 ft 158 kts
2026-04-24 09:15 -21.99974 114.19408 2945 ft 158 kts
2026-04-24 09:15 -21.98892 114.19561 2966 ft 157 kts
2026-04-24 09:16 -21.97796 114.19708 2977 ft 157 kts
2026-04-24 09:16 -21.96716 114.19856 3001 ft 156 kts
2026-04-24 09:16 -21.95627 114.20005 3037 ft 155 kts
2026-04-24 09:16 -21.94546 114.20152 3017 ft 158 kts
2026-04-24 09:17 -21.93439 114.20258 3020 ft 158 kts
2026-04-24 09:17 -21.92332 114.20308 3016 ft 158 kts
2026-04-24 09:17 -21.91228 114.20352 3013 ft 158 kts
2026-04-24 09:17 -21.90123 114.20392 3013 ft 158 kts
2026-04-24 09:18 -21.89020 114.20441 3008 ft 157 kts
2026-04-24 09:18 -21.87938 114.20492 3012 ft 157 kts
2026-04-24 09:18 -21.86847 114.20531 3080 ft 154 kts
2026-04-24 09:18 -21.85763 114.20573 3102 ft 155 kts
2026-04-24 09:19 -21.84675 114.20609 3107 ft 156 kts
2026-04-24 09:19 -21.83586 114.20647 3114 ft 156 kts
2026-04-24 09:19 -21.82556 114.20686 3389 ft 137 kts
2026-04-24 09:19 -21.81601 114.20531 3474 ft 144 kts 341°
2026-04-24 09:20 -21.80615 114.20195 3474 ft 151 kts 340°
2026-04-24 09:20 -21.79584 114.19851 3474 ft 154 kts 341°
2026-04-24 09:20 -21.78550 114.19507 3475 ft 156 kts 341°
2026-04-24 09:20 -21.77410 114.19125 2579 ft 204 kts 340°
2026-04-24 09:21 -21.76001 114.18684 1756 ft 214 kts 340°
2026-04-24 09:21 -21.74608 114.18256 1322 ft 206 kts 340°
2026-04-24 09:21 -21.73254 114.17834 851 ft 202 kts 336°
2026-04-24 09:21 -21.71985 114.17207 390 ft 201 kts 330°
2026-04-24 09:22 -21.70762 114.16608 259 ft 182 kts 331°
2026-04-24 09:22 -21.69717 114.16045 446 ft 155 kts 326°
2026-04-24 09:22 -21.68827 114.15462 606 ft 143 kts 319°
2026-04-24 09:22 -21.67997 114.14887 716 ft 140 kts 327°
2026-04-24 09:23 -21.67071 114.14463 867 ft 149 kts 341°
2026-04-24 09:23 -21.66027 114.14259 955 ft 157 kts 350°
2026-04-24 09:23 -21.64933 114.14135 1051 ft 158 kts 353°
2026-04-24 09:23 -21.63794 114.14072 1038 ft 168 kts 354°
2026-04-24 09:24 -21.62579 114.13908 836 ft 181 kts 347°
2026-04-24 09:24 -21.61362 114.13682 823 ft 176 kts 346°
2026-04-24 09:24 -21.60196 114.13412 864 ft 165 kts 343°
2026-04-24 09:24 -21.59116 114.13170 954 ft 155 kts 345°
2026-04-24 09:25 -21.58032 114.12946 898 ft 157 kts 345°
2026-04-24 09:25 -21.56961 114.12700 807 ft 159 kts 344°
2026-04-24 09:25 -21.55872 114.12441 694 ft 158 kts 342°
2026-04-24 09:25 -21.54816 114.12175 604 ft 155 kts 342°
2026-04-24 09:26 -21.53742 114.11907 468 ft 155 kts 341°
2026-04-24 09:26 -21.52730 114.11632 374 ft 144 kts
2026-04-24 09:26 -21.52163 114.12299 329 ft 117 kts 93°
2026-04-24 09:26 -21.52619 114.12744 183 ft 78 kts 187°
2026-04-24 09:27 -21.52974 114.12510 174 ft 50 kts 210°
2026-04-24 09:27 -21.53193 114.12302 222 ft 39 kts 213°
2026-04-24 09:27 -21.53380 114.12118 293 ft 32 kts 210°
2026-04-24 09:27 -21.53545 114.11969 261 ft 30 kts 204°
2026-04-24 09:28 -21.53729 114.11839 246 ft 32 kts 200°
2026-04-24 09:28 -21.53909 114.11711 207 ft 28 kts 196°
2026-04-24 09:28 -21.54018 114.11649 154 ft 7 kts 189°
2026-04-24 09:28 -21.54047 114.11634 146 ft 7 kts 181°
2026-04-24 09:29 -21.54093 114.11627 127 ft 6 kts 180°